createdAt,value
2023-06-21T00:00:33.356Z,27.39
2023-06-21T00:01:33.359Z,27.38
2023-06-21T00:02:33.419Z,27.39
2023-06-21T00:03:33.531Z,27.39
2023-06-21T00:04:33.451Z,27.38
2023-06-21T00:05:33.481Z,27.38
2023-06-21T00:06:33.498Z,27.37
2023-06-21T00:07:33.567Z,27.37
2023-06-21T00:08:33.575Z,27.38
2023-06-21T00:09:33.646Z,27.38
2023-06-21T00:10:33.625Z,27.37
2023-06-21T00:11:33.646Z,27.38
2023-06-21T00:12:33.687Z,27.38
2023-06-21T00:13:33.699Z,27.37
2023-06-21T00:14:33.721Z,27.37
2023-06-21T00:15:33.770Z,27.36
2023-06-21T00:16:33.780Z,27.37
2023-06-21T00:17:33.911Z,27.36
2023-06-21T00:18:33.858Z,27.36
2023-06-21T00:19:33.897Z,27.36
2023-06-21T00:20:33.909Z,27.37
2023-06-21T00:21:33.947Z,27.36
2023-06-21T00:22:33.960Z,27.36
2023-06-21T00:23:34.030Z,27.36
2023-06-21T00:24:34.063Z,27.36
2023-06-21T00:25:35.404Z,27.37
2023-06-21T00:26:34.155Z,27.36
2023-06-21T00:27:34.201Z,27.36
2023-06-21T00:28:34.217Z,27.37
2023-06-21T00:29:34.247Z,27.36
2023-06-21T00:30:34.324Z,27.36
2023-06-21T00:31:34.320Z,27.36
2023-06-21T00:32:34.421Z,27.36
2023-06-21T00:33:34.369Z,27.36
2023-06-21T00:34:34.403Z,27.36
2023-06-21T00:35:34.410Z,27.36
2023-06-21T00:36:34.447Z,27.36
2023-06-21T00:37:34.508Z,27.35
2023-06-21T00:38:34.542Z,27.35
2023-06-21T00:39:34.556Z,27.35
2023-06-21T00:40:34.932Z,27.35
2023-06-21T00:41:34.607Z,27.34
2023-06-21T00:42:34.696Z,27.35
2023-06-21T00:43:34.711Z,27.35
2023-06-21T00:44:34.710Z,27.35
2023-06-21T00:45:34.751Z,27.34
2023-06-21T00:46:34.832Z,27.35
2023-06-21T00:47:34.857Z,27.34
2023-06-21T00:48:34.851Z,27.35
2023-06-21T00:49:34.897Z,27.34
2023-06-21T00:50:34.940Z,27.34
2023-06-21T00:51:34.933Z,27.33
2023-06-21T00:52:35.024Z,27.33
2023-06-21T00:53:35.006Z,27.34
2023-06-21T00:54:35.084Z,27.34
2023-06-21T00:55:35.057Z,27.35
2023-06-21T00:56:35.208Z,27.34
2023-06-21T00:57:35.162Z,27.34
2023-06-21T00:58:35.157Z,27.34
2023-06-21T00:59:35.226Z,27.33
2023-06-21T01:00:35.236Z,27.34
2023-06-21T01:01:35.378Z,27.34
2023-06-21T01:02:35.365Z,27.34
2023-06-21T01:03:35.334Z,27.35
2023-06-21T01:04:35.333Z,27.34
2023-06-21T01:05:35.423Z,27.33
2023-06-21T01:06:35.404Z,27.34
2023-06-21T01:07:35.435Z,27.33
2023-06-21T01:08:35.467Z,27.33
2023-06-21T01:09:35.468Z,27.33
2023-06-21T01:10:35.487Z,27.33
2023-06-21T01:11:35.506Z,27.34
2023-06-21T01:12:35.603Z,27.33
2023-06-21T01:13:35.560Z,27.34
2023-06-21T01:14:35.610Z,27.34
2023-06-21T01:15:35.625Z,27.33
2023-06-21T01:16:35.674Z,27.33
2023-06-21T01:17:35.723Z,27.33
2023-06-21T01:18:35.723Z,27.33
2023-06-21T01:19:35.730Z,27.34
2023-06-21T01:20:35.781Z,27.32
2023-06-21T01:21:35.804Z,27.33
2023-06-21T01:22:35.857Z,27.32
2023-06-21T01:23:35.840Z,27.32
2023-06-21T01:24:35.953Z,27.32
2023-06-21T01:25:35.866Z,27.31
2023-06-21T01:26:35.927Z,27.31
2023-06-21T01:27:35.916Z,27.31
2023-06-21T01:28:35.942Z,27.31
2023-06-21T01:29:36.023Z,27.32
2023-06-21T01:30:36.040Z,27.31
2023-06-21T01:31:36.122Z,27.31
2023-06-21T01:32:36.124Z,27.31
2023-06-21T01:33:36.120Z,27.31
2023-06-21T01:34:36.125Z,27.31
2023-06-21T01:35:36.162Z,27.31
2023-06-21T01:36:36.224Z,27.31
2023-06-21T01:37:36.246Z,27.31
2023-06-21T01:38:36.258Z,27.31
2023-06-21T01:39:36.292Z,27.30
2023-06-21T01:40:36.334Z,27.31
2023-06-21T01:41:36.342Z,27.30
2023-06-21T01:42:36.382Z,27.30
2023-06-21T01:43:36.427Z,27.30
2023-06-21T01:44:36.509Z,27.30
2023-06-21T01:45:36.514Z,27.30
2023-06-21T01:46:36.507Z,27.30
2023-06-21T01:47:36.579Z,27.29
2023-06-21T01:48:36.592Z,27.30
2023-06-21T01:49:36.647Z,27.29
2023-06-21T01:50:36.651Z,27.30
2023-06-21T01:51:36.708Z,27.30
2023-06-21T01:52:36.744Z,27.30
2023-06-21T01:53:36.773Z,27.30
2023-06-21T01:54:36.815Z,27.31
2023-06-21T01:55:36.871Z,27.30
2023-06-21T01:56:36.864Z,27.30
2023-06-21T01:57:36.972Z,27.29
2023-06-21T01:58:36.956Z,27.30
2023-06-21T01:59:36.965Z,27.30
2023-06-21T02:00:36.991Z,27.30
2023-06-21T02:01:37.045Z,27.30
2023-06-21T02:02:37.532Z,27.30
2023-06-21T02:03:37.086Z,27.30
2023-06-21T02:04:37.127Z,27.30
2023-06-21T02:05:37.266Z,27.30
2023-06-21T02:06:37.231Z,27.30
2023-06-21T02:07:37.248Z,27.29
2023-06-21T02:08:37.254Z,27.30
2023-06-21T02:09:39.683Z,27.30
2023-06-21T02:10:37.442Z,27.29
2023-06-21T02:11:37.502Z,27.29
2023-06-21T02:12:37.528Z,27.30
2023-06-21T02:13:37.542Z,27.30
2023-06-21T02:14:37.569Z,27.29
2023-06-21T02:15:37.627Z,27.29
2023-06-21T02:16:37.663Z,27.29
2023-06-21T02:17:37.771Z,27.29
2023-06-21T02:18:37.720Z,27.28
2023-06-21T02:19:37.756Z,27.29
2023-06-21T02:20:37.793Z,27.28
2023-06-21T02:21:37.829Z,27.29
2023-06-21T02:22:37.877Z,27.27
2023-06-21T02:23:37.909Z,27.28
2023-06-21T02:24:38.068Z,27.28
2023-06-21T02:25:37.974Z,27.28
2023-06-21T02:26:38.008Z,27.27
2023-06-21T02:27:38.042Z,27.28
2023-06-21T02:28:38.102Z,27.27
2023-06-21T02:29:38.089Z,27.28
2023-06-21T02:30:38.142Z,27.27
2023-06-21T02:31:38.221Z,27.27
2023-06-21T02:32:38.278Z,27.28
2023-06-21T02:33:38.314Z,27.28
2023-06-21T02:34:38.278Z,27.28
2023-06-21T02:35:38.313Z,27.28
2023-06-21T02:36:38.353Z,27.28
2023-06-21T02:37:38.392Z,27.28
2023-06-21T02:38:38.436Z,27.27
2023-06-21T02:39:38.446Z,27.27
2023-06-21T02:40:38.487Z,27.27
2023-06-21T02:41:38.529Z,27.27
2023-06-21T02:42:38.529Z,27.27
2023-06-21T02:43:38.582Z,27.26
2023-06-21T02:44:38.620Z,27.27
2023-06-21T02:45:38.646Z,27.27
2023-06-21T02:46:38.714Z,27.27
2023-06-21T02:47:38.758Z,27.27
2023-06-21T02:48:38.736Z,27.26
2023-06-21T02:49:38.802Z,27.25
2023-06-21T02:50:38.810Z,27.26
2023-06-21T02:51:38.844Z,27.26
2023-06-21T02:52:38.890Z,27.26
2023-06-21T02:53:38.956Z,27.26
2023-06-21T02:54:38.959Z,27.26
2023-06-21T02:55:38.988Z,27.26
2023-06-21T02:56:39.006Z,27.26
2023-06-21T02:57:39.050Z,27.25
2023-06-21T02:58:39.066Z,27.26
2023-06-21T02:59:39.137Z,27.25
2023-06-21T03:00:39.182Z,27.26
2023-06-21T03:01:39.173Z,27.26
2023-06-21T03:02:39.284Z,27.25
2023-06-21T03:03:39.324Z,27.25
2023-06-21T03:04:39.301Z,27.26
2023-06-21T03:05:39.342Z,27.26
2023-06-21T03:06:39.354Z,27.26
2023-06-21T03:07:39.399Z,27.25
2023-06-21T03:08:39.429Z,27.25
2023-06-21T03:09:39.480Z,27.25
2023-06-21T03:10:39.518Z,27.24
2023-06-21T03:11:39.562Z,27.24
2023-06-21T03:12:39.621Z,27.23
2023-06-21T03:13:39.635Z,27.25
2023-06-21T03:14:39.699Z,27.24
2023-06-21T03:15:39.722Z,27.24
2023-06-21T03:16:39.778Z,27.24
2023-06-21T03:17:39.846Z,27.24
2023-06-21T03:18:39.835Z,27.24
2023-06-21T03:19:39.882Z,27.23
2023-06-21T03:20:39.940Z,27.23
2023-06-21T03:21:39.952Z,27.23
2023-06-21T03:22:40.008Z,27.23
2023-06-21T03:23:40.048Z,27.23
2023-06-21T03:24:40.205Z,27.23
2023-06-21T03:25:40.128Z,27.23
2023-06-21T03:26:40.167Z,27.23
2023-06-21T03:27:40.300Z,27.23
2023-06-21T03:28:40.306Z,27.22
2023-06-21T03:29:40.315Z,27.23
2023-06-21T03:30:40.345Z,27.23
2023-06-21T03:31:40.452Z,27.23
2023-06-21T03:32:40.502Z,27.23
2023-06-21T03:33:40.497Z,27.23
2023-06-21T03:34:40.520Z,27.23
2023-06-21T03:35:40.601Z,27.23
2023-06-21T03:36:40.638Z,27.23
2023-06-21T03:37:40.671Z,27.22
2023-06-21T03:38:40.708Z,27.22
2023-06-21T03:39:40.769Z,27.22
2023-06-21T03:40:40.829Z,27.23
2023-06-21T03:41:40.855Z,27.22
2023-06-21T03:42:40.892Z,27.22
2023-06-21T03:43:40.935Z,27.22
2023-06-21T03:44:40.968Z,27.22
2023-06-21T03:45:41.026Z,27.22
2023-06-21T03:46:41.149Z,27.21
2023-06-21T03:47:41.429Z,27.22
2023-06-21T03:48:41.170Z,27.22
2023-06-21T03:49:41.221Z,27.22
2023-06-21T03:50:41.287Z,27.22
2023-06-21T03:51:41.301Z,27.22
2023-06-21T03:52:41.396Z,27.22
2023-06-21T03:53:41.422Z,27.21
2023-06-21T03:54:41.448Z,27.21
2023-06-21T03:55:41.499Z,27.21
2023-06-21T03:56:41.544Z,27.22
2023-06-21T03:57:41.610Z,27.22
2023-06-21T03:58:41.637Z,27.22
2023-06-21T03:59:41.709Z,27.22
2023-06-21T04:00:41.722Z,27.21
2023-06-21T04:01:41.799Z,27.21
2023-06-21T04:02:41.879Z,27.21
2023-06-21T04:03:41.906Z,27.22
2023-06-21T04:04:41.895Z,27.21
2023-06-21T04:05:41.966Z,27.21
2023-06-21T04:06:41.959Z,27.20
2023-06-21T04:07:42.085Z,27.22
2023-06-21T04:08:42.044Z,27.21
2023-06-21T04:09:42.103Z,27.20
2023-06-21T04:10:42.128Z,27.21
2023-06-21T04:11:42.171Z,27.21
2023-06-21T04:12:42.617Z,27.21
2023-06-21T04:13:42.249Z,27.21
2023-06-21T04:14:42.267Z,27.22
2023-06-21T04:15:42.335Z,27.21
2023-06-21T04:16:42.339Z,27.21
2023-06-21T04:17:42.601Z,27.21
2023-06-21T04:18:42.424Z,27.21
2023-06-21T04:19:42.450Z,27.21
2023-06-21T04:20:42.500Z,27.21
2023-06-21T04:21:42.544Z,27.21
2023-06-21T04:22:43.115Z,27.21
2023-06-21T04:23:42.612Z,27.22
2023-06-21T04:24:42.711Z,27.22
2023-06-21T04:25:42.669Z,27.22
2023-06-21T04:26:42.711Z,27.22
2023-06-21T04:27:43.092Z,27.22
2023-06-21T04:28:42.795Z,27.22
2023-06-21T04:29:42.835Z,27.22
2023-06-21T04:30:42.839Z,27.22
2023-06-21T04:31:42.925Z,27.23
2023-06-21T04:32:43.071Z,27.23
2023-06-21T04:33:42.960Z,27.23
2023-06-21T04:34:43.002Z,27.24
2023-06-21T04:35:43.085Z,27.24
2023-06-21T04:36:43.105Z,27.25
2023-06-21T04:37:43.156Z,27.23
2023-06-21T04:38:43.174Z,27.24
2023-06-21T04:39:43.226Z,27.24
2023-06-21T04:40:43.558Z,27.24
2023-06-21T04:41:43.312Z,27.23
2023-06-21T04:42:43.386Z,27.24
2023-06-21T04:43:43.402Z,27.24
2023-06-21T04:44:43.428Z,27.25
2023-06-21T04:45:43.484Z,27.24
2023-06-21T04:46:43.510Z,27.25
2023-06-21T04:47:43.599Z,27.25
2023-06-21T04:48:43.627Z,27.25
2023-06-21T04:49:43.645Z,27.26
2023-06-21T04:50:43.696Z,27.25
2023-06-21T04:51:43.740Z,27.25
2023-06-21T04:52:43.787Z,27.25
2023-06-21T04:53:43.859Z,27.25
2023-06-21T04:54:43.887Z,27.26
2023-06-21T04:55:43.915Z,27.26
2023-06-21T04:56:43.995Z,27.25
2023-06-21T04:57:43.978Z,27.26
2023-06-21T04:58:44.063Z,27.27
2023-06-21T04:59:44.067Z,27.27
2023-06-21T05:00:44.137Z,27.27
2023-06-21T05:01:44.186Z,27.27
2023-06-21T05:02:44.298Z,27.27
2023-06-21T05:03:44.271Z,27.28
2023-06-21T05:04:44.265Z,27.28
2023-06-21T05:05:44.344Z,27.28
2023-06-21T05:06:44.368Z,27.28
2023-06-21T05:07:44.433Z,27.28
2023-06-21T05:08:44.443Z,27.28
2023-06-21T05:09:44.516Z,27.29
2023-06-21T05:10:44.514Z,27.29
2023-06-21T05:11:44.557Z,27.29
2023-06-21T05:12:45.099Z,27.30
2023-06-21T05:13:44.638Z,27.30
2023-06-21T05:14:44.706Z,27.29
2023-06-21T05:15:44.753Z,27.29
2023-06-21T05:16:44.775Z,27.30
2023-06-21T05:17:45.147Z,27.30
2023-06-21T05:18:44.855Z,27.30
2023-06-21T05:19:44.874Z,27.30
2023-06-21T05:20:44.932Z,27.31
2023-06-21T05:21:44.983Z,27.31
2023-06-21T05:22:44.993Z,27.30
2023-06-21T05:23:45.033Z,27.30
2023-06-21T05:24:45.130Z,27.31
2023-06-21T05:25:45.132Z,27.31
2023-06-21T05:26:45.190Z,27.31
2023-06-21T05:27:45.193Z,27.31
2023-06-21T05:28:45.249Z,27.31
2023-06-21T05:29:45.265Z,27.31
2023-06-21T05:30:45.392Z,27.31
2023-06-21T05:31:45.372Z,27.31
2023-06-21T05:32:45.389Z,27.31
2023-06-21T05:33:45.446Z,27.31
2023-06-21T05:34:45.464Z,27.31
2023-06-21T05:35:45.492Z,27.32
2023-06-21T05:36:45.522Z,27.32
2023-06-21T05:37:45.628Z,27.32
2023-06-21T05:38:45.568Z,27.32
2023-06-21T05:39:45.620Z,27.32
2023-06-21T05:40:45.633Z,27.32
2023-06-21T05:41:45.658Z,27.32
2023-06-21T05:42:45.734Z,27.33
2023-06-21T05:43:45.771Z,27.32
2023-06-21T05:44:45.809Z,27.33
2023-06-21T05:45:45.848Z,27.33
2023-06-21T05:46:45.947Z,27.33
2023-06-21T05:47:46.216Z,27.33
2023-06-21T05:48:45.935Z,27.33
2023-06-21T05:49:46.017Z,27.37
2023-06-21T05:50:46.021Z,27.40
2023-06-21T05:51:46.051Z,27.43
2023-06-21T05:52:46.138Z,27.48
2023-06-21T05:53:46.108Z,27.47
2023-06-21T05:54:46.140Z,27.50
2023-06-21T05:55:46.138Z,27.53
2023-06-21T05:56:46.155Z,27.55
2023-06-21T05:57:46.161Z,27.57
2023-06-21T05:58:46.188Z,27.58
2023-06-21T05:59:46.202Z,27.55
2023-06-21T06:00:46.200Z,27.53
2023-06-21T06:01:46.212Z,27.57
2023-06-21T06:02:46.219Z,27.63
2023-06-21T06:03:46.272Z,27.68
2023-06-21T06:04:46.210Z,27.75
2023-06-21T06:05:46.238Z,27.82
2023-06-21T06:06:46.293Z,27.90
2023-06-21T06:07:46.341Z,27.94
2023-06-21T06:08:46.417Z,27.99
2023-06-21T06:09:46.509Z,28.02
2023-06-21T06:10:46.574Z,28.05
2023-06-21T06:11:46.658Z,28.08
2023-06-21T06:12:46.700Z,28.10
2023-06-21T06:13:46.756Z,28.13
2023-06-21T06:14:46.800Z,28.15
2023-06-21T06:15:46.819Z,28.17
2023-06-21T06:16:46.947Z,28.18
2023-06-21T06:17:47.001Z,28.21
2023-06-21T06:18:46.978Z,28.22
2023-06-21T06:19:47.016Z,28.24
2023-06-21T06:20:48.641Z,28.27
2023-06-21T06:21:47.095Z,28.28
2023-06-21T06:22:47.070Z,28.30
2023-06-21T06:23:47.042Z,28.32
2023-06-21T06:24:47.075Z,28.36
2023-06-21T06:25:47.062Z,28.37
2023-06-21T06:26:47.025Z,28.40
2023-06-21T06:27:47.021Z,28.42
2023-06-21T06:28:47.021Z,28.44
2023-06-21T06:29:47.001Z,28.46
2023-06-21T06:30:47.026Z,28.48
2023-06-21T06:31:47.104Z,28.50
2023-06-21T06:32:47.059Z,28.53
2023-06-21T06:33:46.976Z,28.53
2023-06-21T06:34:46.997Z,28.55
2023-06-21T06:35:46.974Z,28.55
2023-06-21T06:36:53.476Z,28.56
2023-06-21T06:37:47.988Z,28.57
2023-06-21T06:38:46.971Z,28.58
2023-06-21T06:39:46.978Z,28.60
2023-06-21T06:40:46.944Z,28.63
2023-06-21T06:41:46.949Z,28.65
2023-06-21T06:42:46.910Z,28.69
2023-06-21T06:43:46.940Z,28.72
2023-06-21T06:44:46.908Z,28.74
2023-06-21T06:45:46.909Z,28.77
2023-06-21T06:46:46.874Z,28.79
2023-06-21T06:47:46.906Z,28.81
2023-06-21T06:48:46.887Z,28.82
2023-06-21T06:49:46.904Z,28.83
2023-06-21T06:50:46.893Z,28.81
2023-06-21T06:51:46.878Z,28.81
2023-06-21T06:52:47.063Z,28.80
2023-06-21T06:53:46.853Z,28.80
2023-06-21T06:54:46.842Z,28.80
2023-06-21T06:55:46.834Z,28.82
2023-06-21T06:56:46.850Z,28.83
2023-06-21T06:58:00.494Z,28.84
2023-06-21T06:58:47.827Z,28.85
2023-06-21T06:59:46.809Z,28.87
2023-06-21T07:00:46.827Z,28.91
2023-06-21T07:01:46.784Z,28.95
2023-06-21T07:02:46.877Z,28.96
2023-06-21T07:03:47.014Z,28.97
2023-06-21T07:04:46.873Z,28.97
2023-06-21T07:05:46.800Z,28.98
2023-06-21T07:06:46.786Z,28.98
2023-06-21T07:07:47.167Z,28.98
2023-06-21T07:08:46.732Z,28.98
2023-06-21T07:09:46.788Z,28.99
2023-06-21T07:10:46.748Z,28.98
2023-06-21T07:11:46.755Z,28.98
2023-06-21T07:12:47.184Z,28.98
2023-06-21T07:13:46.766Z,28.98
2023-06-21T07:14:46.697Z,28.97
2023-06-21T07:15:46.721Z,28.97
2023-06-21T07:16:46.705Z,28.97
2023-06-21T07:17:46.717Z,28.97
2023-06-21T07:18:46.687Z,28.98
2023-06-21T07:19:46.733Z,28.99
2023-06-21T07:20:46.745Z,28.97
2023-06-21T07:21:46.699Z,28.99
2023-06-21T07:22:46.640Z,29.00
2023-06-21T07:23:46.689Z,29.00
2023-06-21T07:24:47.252Z,29.02
2023-06-21T07:25:46.649Z,29.02
2023-06-21T07:26:46.650Z,29.04
2023-06-21T07:27:46.658Z,29.04
2023-06-21T07:28:46.605Z,29.05
2023-06-21T07:29:46.618Z,29.06
2023-06-21T07:30:46.627Z,29.07
2023-06-21T07:31:46.585Z,29.08
2023-06-21T07:32:46.677Z,29.09
2023-06-21T07:33:46.606Z,29.09
2023-06-21T07:34:46.597Z,29.10
2023-06-21T07:35:46.560Z,29.12
2023-06-21T07:36:46.543Z,29.12
2023-06-21T07:37:46.588Z,29.13
2023-06-21T07:38:46.582Z,29.13
2023-06-21T07:39:54.476Z,29.15
2023-06-21T07:40:47.681Z,29.15
2023-06-21T07:41:46.548Z,29.15
2023-06-21T07:42:46.700Z,29.16
2023-06-21T07:43:46.517Z,29.18
2023-06-21T07:44:46.560Z,29.19
2023-06-21T07:45:46.532Z,29.20
2023-06-21T07:46:46.589Z,29.21
2023-06-21T07:47:46.525Z,29.16
2023-06-21T07:48:46.469Z,29.12
2023-06-21T07:49:46.468Z,29.12
2023-06-21T07:50:46.496Z,29.09
2023-06-21T07:51:46.466Z,29.09
2023-06-21T07:52:46.441Z,29.10
2023-06-21T07:53:46.480Z,29.13
2023-06-21T07:54:46.482Z,29.18
2023-06-21T07:55:46.448Z,29.23
2023-06-21T07:56:46.469Z,29.26
2023-06-21T07:57:46.454Z,29.31
2023-06-21T07:58:46.524Z,29.33
2023-06-21T07:59:46.580Z,29.38
2023-06-21T08:00:46.637Z,29.42
2023-06-21T08:01:46.740Z,29.45
2023-06-21T08:02:46.808Z,29.49
2023-06-21T08:03:46.784Z,29.52
2023-06-21T08:04:47.688Z,29.55
2023-06-21T08:05:46.880Z,29.57
2023-06-21T08:06:46.902Z,29.60
2023-06-21T08:07:46.954Z,29.62
2023-06-21T08:08:46.984Z,29.63
2023-06-21T08:09:47.029Z,29.66
2023-06-21T08:10:47.056Z,29.66
2023-06-21T08:11:47.062Z,29.67
2023-06-21T08:12:47.067Z,29.68
2023-06-21T08:13:47.201Z,29.70
2023-06-21T08:14:47.130Z,29.72
2023-06-21T08:15:47.166Z,29.73
2023-06-21T08:16:47.176Z,29.75
2023-06-21T08:17:47.236Z,29.76
2023-06-21T08:18:47.229Z,29.78
2023-06-21T08:19:47.227Z,29.80
2023-06-21T08:20:47.230Z,29.83
2023-06-21T08:21:47.246Z,29.84
2023-06-21T08:22:47.364Z,29.87
2023-06-21T08:23:47.306Z,29.89
2023-06-21T08:24:47.270Z,29.90
2023-06-21T08:25:47.274Z,29.92
2023-06-21T08:26:47.278Z,29.91
2023-06-21T08:27:47.283Z,29.94
2023-06-21T08:28:47.373Z,29.94
2023-06-21T08:29:47.434Z,29.93
2023-06-21T08:30:47.455Z,29.94
2023-06-21T08:31:47.505Z,29.94
2023-06-21T08:32:47.591Z,29.94
2023-06-21T08:33:47.568Z,29.94
2023-06-21T08:34:47.575Z,29.95
2023-06-21T08:35:47.611Z,29.96
2023-06-21T08:36:47.591Z,29.98
2023-06-21T08:37:47.616Z,30.00
2023-06-21T08:38:47.623Z,30.01
2023-06-21T08:39:47.614Z,30.02
2023-06-21T08:40:47.599Z,30.04
2023-06-21T08:41:47.695Z,30.05
2023-06-21T08:42:47.664Z,30.03
2023-06-21T08:43:47.652Z,29.98
2023-06-21T08:44:47.625Z,29.98
2023-06-21T08:45:47.632Z,29.95
2023-06-21T08:46:47.629Z,29.94
2023-06-21T08:47:47.667Z,29.93
2023-06-21T08:48:47.708Z,29.93
2023-06-21T08:49:47.661Z,29.92
2023-06-21T08:50:47.662Z,29.92
2023-06-21T08:51:47.712Z,29.93
2023-06-21T08:52:47.722Z,29.94
2023-06-21T08:53:47.724Z,29.95
2023-06-21T08:54:47.762Z,29.95
2023-06-21T08:55:47.802Z,29.93
2023-06-21T08:56:47.850Z,29.93
2023-06-21T08:57:47.963Z,29.89
2023-06-21T08:58:47.915Z,29.89
2023-06-21T08:59:47.920Z,29.90
2023-06-21T09:00:47.937Z,29.90
2023-06-21T09:01:48.057Z,29.90
2023-06-21T09:02:48.101Z,29.92
2023-06-21T09:03:48.161Z,29.93
2023-06-21T09:04:48.139Z,29.93
2023-06-21T09:05:48.009Z,29.93
2023-06-21T09:06:48.049Z,29.93
2023-06-21T09:07:48.082Z,29.94
2023-06-21T09:08:48.101Z,29.94
2023-06-21T09:09:48.075Z,29.95
2023-06-21T09:10:48.090Z,29.95
2023-06-21T09:11:48.121Z,29.96
2023-06-21T09:12:49.617Z,29.97
2023-06-21T09:13:48.074Z,29.97
2023-06-21T09:14:48.090Z,29.98
2023-06-21T09:15:48.075Z,29.99
2023-06-21T09:16:48.286Z,30.00
2023-06-21T09:17:48.086Z,30.02
2023-06-21T09:18:48.050Z,30.03
2023-06-21T09:19:48.048Z,30.03
2023-06-21T09:20:48.126Z,30.04
2023-06-21T09:21:48.050Z,30.06
2023-06-21T09:22:48.037Z,30.03
2023-06-21T09:23:48.041Z,30.04
2023-06-21T09:24:47.998Z,30.03
2023-06-21T09:25:48.014Z,30.00
2023-06-21T09:26:48.006Z,29.96
2023-06-21T09:27:47.989Z,29.91
2023-06-21T09:28:48.000Z,29.88
2023-06-21T09:29:47.996Z,29.84
2023-06-21T09:30:48.325Z,29.81
2023-06-21T09:31:47.967Z,29.76
2023-06-21T09:32:48.050Z,29.73
2023-06-21T09:33:48.288Z,29.72
2023-06-21T09:34:47.971Z,29.69
2023-06-21T09:35:48.005Z,29.66
2023-06-21T09:36:47.929Z,29.64
2023-06-21T09:37:48.147Z,29.62
2023-06-21T09:38:47.948Z,29.60
2023-06-21T09:39:47.900Z,29.58
2023-06-21T09:40:47.903Z,29.56
2023-06-21T09:41:47.927Z,29.55
2023-06-21T09:42:47.901Z,29.53
2023-06-21T09:43:47.916Z,29.50
2023-06-21T09:44:47.887Z,29.49
2023-06-21T09:45:47.881Z,29.47
2023-06-21T09:46:47.868Z,29.46
2023-06-21T09:47:48.238Z,29.45
2023-06-21T09:48:49.787Z,29.43
2023-06-21T09:49:47.864Z,29.41
2023-06-21T09:50:47.983Z,29.41
2023-06-21T09:51:48.043Z,29.39
2023-06-21T09:52:48.071Z,29.38
2023-06-21T09:53:48.140Z,29.37
2023-06-21T09:54:49.391Z,29.35
2023-06-21T09:55:48.274Z,29.34
2023-06-21T09:56:48.325Z,29.33
2023-06-21T09:57:48.400Z,29.32
2023-06-21T09:58:48.499Z,29.31
2023-06-21T09:59:48.503Z,29.29
2023-06-21T10:00:48.644Z,29.28
2023-06-21T10:01:48.572Z,29.27
2023-06-21T10:02:48.632Z,29.27
2023-06-21T10:03:48.982Z,29.25
2023-06-21T10:04:48.745Z,29.25
2023-06-21T10:05:48.703Z,29.24
2023-06-21T10:06:48.742Z,29.23
2023-06-21T10:07:48.860Z,29.22
2023-06-21T10:08:48.879Z,29.21
2023-06-21T10:09:48.880Z,29.21
2023-06-21T10:10:48.891Z,29.19
2023-06-21T10:11:48.920Z,29.19
2023-06-21T10:12:48.922Z,29.19
2023-06-21T10:13:49.281Z,29.18
2023-06-21T10:14:48.948Z,29.17
2023-06-21T10:15:48.955Z,29.16
2023-06-21T10:16:48.984Z,29.16
2023-06-21T10:17:59.968Z,29.15
2023-06-21T10:18:50.026Z,29.14
2023-06-21T10:19:48.961Z,29.13
2023-06-21T10:20:49.010Z,29.14
2023-06-21T10:21:48.993Z,29.12
2023-06-21T10:22:48.989Z,29.12
2023-06-21T10:23:48.929Z,29.11
2023-06-21T10:24:48.936Z,29.11
2023-06-21T10:25:48.922Z,29.10
2023-06-21T10:26:48.907Z,29.09
2023-06-21T10:27:48.919Z,29.09
2023-06-21T10:28:48.922Z,29.08
2023-06-21T10:29:48.944Z,29.08
2023-06-21T10:30:48.901Z,29.08
2023-06-21T10:31:48.931Z,29.07
2023-06-21T10:32:48.942Z,29.06
2023-06-21T10:33:48.906Z,29.06
2023-06-21T10:34:48.908Z,29.05
2023-06-21T10:35:48.884Z,29.05
2023-06-21T10:36:48.990Z,29.04
2023-06-21T10:37:48.896Z,29.03
2023-06-21T10:38:49.267Z,29.03
2023-06-21T10:39:55.399Z,29.03
2023-06-21T10:40:49.842Z,29.02
2023-06-21T10:41:48.875Z,29.02
2023-06-21T10:42:48.838Z,29.01
2023-06-21T10:43:49.278Z,29.01
2023-06-21T10:44:48.818Z,29.00
2023-06-21T10:45:48.856Z,28.99
2023-06-21T10:46:48.791Z,28.99
2023-06-21T10:47:48.934Z,28.98
2023-06-21T10:48:49.277Z,28.97
2023-06-21T10:49:48.831Z,28.98
2023-06-21T10:50:48.831Z,28.97
2023-06-21T10:51:48.764Z,28.96
2023-06-21T10:52:48.782Z,28.96
2023-06-21T10:53:48.782Z,28.96
2023-06-21T10:54:48.748Z,28.95
2023-06-21T10:55:48.734Z,28.94
2023-06-21T10:56:48.735Z,28.94
2023-06-21T10:57:48.779Z,28.94
2023-06-21T10:58:48.735Z,28.93
2023-06-21T10:59:48.734Z,28.93
2023-06-21T11:00:49.016Z,28.92
2023-06-21T11:01:48.807Z,28.92
2023-06-21T11:02:48.712Z,28.92
2023-06-21T11:03:48.738Z,28.91
2023-06-21T11:04:54.301Z,28.91
2023-06-21T11:05:49.674Z,28.90
2023-06-21T11:06:48.695Z,28.90
2023-06-21T11:07:48.683Z,28.89
2023-06-21T11:08:48.668Z,28.89
2023-06-21T11:09:48.645Z,28.88
2023-06-21T11:10:48.660Z,28.88
2023-06-21T11:11:48.639Z,28.87
2023-06-21T11:12:48.676Z,28.86
2023-06-21T11:13:48.926Z,28.87
2023-06-21T11:14:48.603Z,28.87
2023-06-21T11:15:48.650Z,28.86
2023-06-21T11:16:48.557Z,28.85
2023-06-21T11:17:48.638Z,28.86
2023-06-21T11:18:48.729Z,28.85
2023-06-21T11:19:48.700Z,28.85
2023-06-21T11:20:48.555Z,28.85
2023-06-21T11:21:48.696Z,28.84
2023-06-21T11:22:48.546Z,28.83
2023-06-21T11:23:48.867Z,28.83
2023-06-21T11:24:48.539Z,28.83
2023-06-21T11:25:48.503Z,28.82
2023-06-21T11:26:48.539Z,28.83
2023-06-21T11:27:48.547Z,28.82
2023-06-21T11:28:48.476Z,28.82
2023-06-21T11:29:48.502Z,28.81
2023-06-21T11:30:48.572Z,28.81
2023-06-21T11:31:48.655Z,28.81
2023-06-21T11:32:48.536Z,28.80
2023-06-21T11:33:48.913Z,28.80
2023-06-21T11:34:48.458Z,28.80
2023-06-21T11:35:48.494Z,28.79
2023-06-21T11:36:48.471Z,28.78
2023-06-21T11:37:48.443Z,28.78
2023-06-21T11:38:48.790Z,28.78
2023-06-21T11:39:48.480Z,28.77
2023-06-21T11:40:48.497Z,28.76
2023-06-21T11:41:48.526Z,28.76
2023-06-21T11:42:48.606Z,28.75
2023-06-21T11:43:48.539Z,28.75
2023-06-21T11:44:48.560Z,28.75
2023-06-21T11:45:50.088Z,28.74
2023-06-21T11:46:48.579Z,28.73
2023-06-21T11:47:48.722Z,28.73
2023-06-21T11:48:48.840Z,28.73
2023-06-21T11:49:48.628Z,28.73
2023-06-21T11:50:48.640Z,28.73
2023-06-21T11:51:48.647Z,28.72
2023-06-21T11:52:48.702Z,28.71
2023-06-21T11:53:48.693Z,28.70
2023-06-21T11:54:48.701Z,28.70
2023-06-21T11:55:48.730Z,28.70
2023-06-21T11:56:48.733Z,28.70
2023-06-21T11:57:48.791Z,28.70
2023-06-21T11:58:48.836Z,28.70
2023-06-21T11:59:48.835Z,28.69
2023-06-21T12:00:48.879Z,28.68
2023-06-21T12:01:48.855Z,28.68
2023-06-21T12:02:48.921Z,28.67
2023-06-21T12:03:49.048Z,28.67
2023-06-21T12:04:49.034Z,28.66
2023-06-21T12:05:48.993Z,28.65
2023-06-21T12:06:48.971Z,28.65
2023-06-21T12:07:49.019Z,28.65
2023-06-21T12:08:49.057Z,28.65
2023-06-21T12:09:52.003Z,28.64
2023-06-21T12:10:49.051Z,28.64
2023-06-21T12:11:49.079Z,28.64
2023-06-21T12:12:49.091Z,28.63
2023-06-21T12:13:49.037Z,28.64
2023-06-21T12:14:49.025Z,28.63
2023-06-21T12:15:49.078Z,28.62
2023-06-21T12:16:49.066Z,28.62
2023-06-21T12:17:49.066Z,28.62
2023-06-21T12:18:49.302Z,28.61
2023-06-21T12:19:49.006Z,28.61
2023-06-21T12:20:51.051Z,28.61
2023-06-21T12:21:48.992Z,28.61
2023-06-21T12:22:49.012Z,28.60
2023-06-21T12:23:48.974Z,28.60
2023-06-21T12:24:48.966Z,28.59
2023-06-21T12:25:48.943Z,28.59
2023-06-21T12:26:48.937Z,28.59
2023-06-21T12:27:48.946Z,28.59
2023-06-21T12:28:49.404Z,28.59
2023-06-21T12:29:48.944Z,28.58
2023-06-21T12:30:48.973Z,28.57
2023-06-21T12:31:48.917Z,28.56
2023-06-21T12:32:48.949Z,28.56
2023-06-21T12:33:49.373Z,28.55
2023-06-21T12:34:48.917Z,28.54
2023-06-21T12:35:48.888Z,28.55
2023-06-21T12:36:48.887Z,28.54
2023-06-21T12:37:48.895Z,28.53
2023-06-21T12:38:48.891Z,28.53
2023-06-21T12:39:48.875Z,28.53
2023-06-21T12:40:48.828Z,28.52
2023-06-21T12:41:48.862Z,28.52
2023-06-21T12:42:48.846Z,28.52
2023-06-21T12:43:48.842Z,28.51
2023-06-21T12:44:48.835Z,28.51
2023-06-21T12:45:48.843Z,28.50
2023-06-21T12:46:48.794Z,28.51
2023-06-21T12:47:48.869Z,28.50
2023-06-21T12:48:48.804Z,28.50
2023-06-21T12:49:48.796Z,28.49
2023-06-21T12:50:48.850Z,28.48
2023-06-21T12:51:48.796Z,28.48
2023-06-21T12:52:48.770Z,28.48